createdAt,value
2019-02-12T00:01:15.207Z,90.00
2019-02-12T00:03:45.519Z,90.10
2019-02-12T00:06:15.854Z,90.20
2019-02-12T00:08:46.177Z,90.30
2019-02-12T00:11:16.525Z,90.30
2019-02-12T00:13:46.832Z,90.40
2019-02-12T00:16:17.183Z,90.40
2019-02-12T00:18:47.533Z,90.40
2019-02-12T00:21:17.941Z,90.40
2019-02-12T00:23:48.314Z,90.40
2019-02-12T00:26:18.635Z,90.40
2019-02-12T00:28:49.022Z,90.50
2019-02-12T00:31:19.377Z,90.60
2019-02-12T00:33:49.693Z,90.40
2019-02-12T00:36:20.030Z,90.50
2019-02-12T00:38:50.332Z,90.40
2019-02-12T00:41:20.675Z,90.60
2019-02-12T00:43:51.009Z,90.50
2019-02-12T00:46:21.350Z,90.10
2019-02-12T00:48:51.656Z,90.00
2019-02-12T00:51:22.017Z,89.50
2019-02-12T00:53:52.301Z,89.30
2019-02-12T00:56:22.630Z,89.50
2019-02-12T00:58:52.927Z,89.90
2019-02-12T01:01:23.246Z,90.10
2019-02-12T01:03:53.646Z,90.40
2019-02-12T01:06:24.050Z,90.80
2019-02-12T01:08:54.366Z,90.90
2019-02-12T01:11:24.721Z,91.00
2019-02-12T01:13:55.014Z,90.90
2019-02-12T01:16:25.350Z,90.90
2019-02-12T01:18:55.683Z,91.20
2019-02-12T01:21:26.512Z,91.10
2019-02-12T01:23:56.903Z,91.00
2019-02-12T01:26:27.235Z,91.30
2019-02-12T01:28:57.529Z,91.60
2019-02-12T01:31:27.881Z,91.40
2019-02-12T01:33:58.166Z,91.20
2019-02-12T01:36:28.502Z,91.40
2019-02-12T01:38:59.049Z,91.20
2019-02-12T01:41:29.391Z,91.10
2019-02-12T01:43:59.694Z,90.90
2019-02-12T01:46:30.035Z,91.00
2019-02-12T01:49:00.435Z,91.00
2019-02-12T01:51:35.073Z,90.70
2019-02-12T01:54:03.671Z,90.80
2019-02-12T01:56:34.008Z,90.80
2019-02-12T01:59:04.773Z,90.70
2019-02-12T02:01:35.105Z,90.70
2019-02-12T02:04:05.440Z,90.60
2019-02-12T02:06:35.766Z,90.50
2019-02-12T02:09:07.054Z,90.60
2019-02-12T02:11:37.502Z,90.70
2019-02-12T02:14:07.807Z,90.80
2019-02-12T02:16:38.313Z,91.00
2019-02-12T02:19:08.619Z,90.70
2019-02-12T02:21:44.099Z,90.80
2019-02-12T02:24:10.938Z,91.00
2019-02-12T02:26:41.454Z,90.90
2019-02-12T02:29:11.956Z,90.90
2019-02-12T02:31:42.323Z,91.00
2019-02-12T02:34:13.190Z,90.90
2019-02-12T02:36:43.604Z,90.80
2019-02-12T02:39:14.280Z,90.70
2019-02-12T02:41:44.702Z,90.80
2019-02-12T02:44:15.230Z,90.80
2019-02-12T02:46:45.578Z,90.80
2019-02-12T02:49:16.107Z,90.70
2019-02-12T02:51:53.751Z,90.80
2019-02-12T02:54:18.415Z,91.10
2019-02-12T02:56:49.154Z,90.80
2019-02-12T02:59:19.659Z,90.70
2019-02-12T03:01:50.000Z,90.90
2019-02-12T03:04:20.357Z,91.10
2019-02-12T03:06:50.682Z,91.10
2019-02-12T03:09:20.982Z,91.00
2019-02-12T03:11:51.388Z,90.80
2019-02-12T03:14:21.695Z,90.90
2019-02-12T03:16:52.133Z,91.00
2019-02-12T03:19:22.486Z,90.70
2019-02-12T03:21:52.881Z,90.80
2019-02-12T03:24:23.262Z,90.80
2019-02-12T03:26:53.633Z,90.80
2019-02-12T03:29:24.047Z,90.80
2019-02-12T03:31:54.350Z,90.80
2019-02-12T03:34:24.679Z,90.80
2019-02-12T03:36:54.982Z,90.80
2019-02-12T03:39:25.341Z,90.90
2019-02-12T03:41:55.667Z,90.80
2019-02-12T03:44:26.067Z,90.80
2019-02-12T03:46:56.386Z,90.80
2019-02-12T03:49:26.728Z,90.80
2019-02-12T03:51:57.037Z,90.80
2019-02-12T03:54:28.357Z,90.80
2019-02-12T03:56:58.685Z,90.90
2019-02-12T03:59:29.057Z,90.70
2019-02-12T04:01:59.362Z,90.90
2019-02-12T04:04:29.685Z,90.80
2019-02-12T04:07:00.025Z,90.90
2019-02-12T04:09:30.399Z,90.80
2019-02-12T04:12:01.205Z,90.90
2019-02-12T04:14:31.772Z,90.70
2019-02-12T04:17:02.091Z,90.80
2019-02-12T04:19:32.544Z,90.90
2019-02-12T04:22:06.570Z,90.90
2019-02-12T04:24:36.914Z,90.90
2019-02-12T04:27:07.220Z,90.90
2019-02-12T04:29:37.584Z,90.80
2019-02-12T04:32:07.971Z,90.80
2019-02-12T04:34:38.302Z,90.70
2019-02-12T04:37:08.709Z,90.60
2019-02-12T04:39:39.069Z,90.70
2019-02-12T04:42:10.349Z,90.50
2019-02-12T04:44:40.695Z,90.60
2019-02-12T04:47:11.014Z,90.60
2019-02-12T04:49:41.376Z,90.50
2019-02-12T04:52:11.773Z,90.70
2019-02-12T04:54:42.209Z,90.70
2019-02-12T04:57:12.567Z,90.70
2019-02-12T04:59:42.895Z,90.70
2019-02-12T05:02:13.237Z,90.80
2019-02-12T05:04:43.595Z,91.00
2019-02-12T05:07:14.225Z,90.90
2019-02-12T05:09:46.530Z,90.90
2019-02-12T05:12:18.568Z,91.00
2019-02-12T05:14:49.100Z,91.10
2019-02-12T05:17:19.585Z,91.10
2019-02-12T05:19:50.232Z,91.20
2019-02-12T05:22:20.753Z,91.30
2019-02-12T05:24:51.616Z,91.40
2019-02-12T05:27:22.220Z,91.30
2019-02-12T05:29:52.943Z,91.40
2019-02-12T05:32:23.553Z,91.70
2019-02-12T05:34:55.786Z,91.60
2019-02-12T05:37:26.084Z,91.60
2019-02-12T05:39:56.860Z,91.80
2019-02-12T05:42:27.191Z,91.50
2019-02-12T05:44:57.672Z,91.50
2019-02-12T05:47:28.052Z,91.80
2019-02-12T05:50:02.006Z,91.80
2019-02-12T05:52:32.317Z,92.00
2019-02-12T05:55:03.021Z,92.10
2019-02-12T05:57:33.426Z,92.20
2019-02-12T06:00:04.636Z,92.30
2019-02-12T06:02:35.578Z,92.10
2019-02-12T06:05:06.106Z,92.00
2019-02-12T06:07:36.524Z,92.10
2019-02-12T06:10:08.179Z,91.90
2019-02-12T06:12:38.498Z,92.30
2019-02-12T06:15:11.357Z,92.30
2019-02-12T06:17:41.655Z,92.20
2019-02-12T06:20:11.992Z,92.30
2019-02-12T06:22:42.394Z,92.30
2019-02-12T06:25:12.852Z,92.30
2019-02-12T06:27:43.157Z,92.30
2019-02-12T06:30:13.503Z,92.20
2019-02-12T06:32:43.883Z,92.20
2019-02-12T06:35:14.254Z,92.10
2019-02-12T06:37:44.554Z,92.00
2019-02-12T06:40:14.880Z,92.10
2019-02-12T06:42:45.186Z,92.00
2019-02-12T06:45:15.535Z,92.20
2019-02-12T06:47:47.054Z,92.10
2019-02-12T06:50:18.479Z,92.50
2019-02-12T06:52:49.765Z,92.20
2019-02-12T06:55:20.094Z,92.30
2019-02-12T06:57:50.414Z,92.30
2019-02-12T07:00:20.756Z,92.40
2019-02-12T07:03:15.858Z,92.40
2019-02-12T07:05:56.267Z,92.30
2019-02-12T07:09:12.636Z,92.30
2019-02-12T07:12:05.491Z,92.40
2019-02-12T07:15:09.774Z,92.30
2019-02-12T07:18:23.910Z,92.20
2019-02-12T07:21:14.245Z,92.20
2019-02-12T07:24:27.475Z,92.10
2019-02-12T07:27:26.683Z,92.00
2019-02-12T07:30:31.785Z,91.90
2019-02-12T07:34:10.400Z,91.80
2019-02-12T07:37:09.188Z,91.90
2019-02-12T07:40:03.087Z,91.80
2019-02-12T07:43:03.315Z,91.70
2019-02-12T07:46:10.890Z,91.80
2019-02-12T07:49:06.686Z,91.70
2019-02-12T07:52:39.535Z,91.80
2019-02-12T07:55:51.405Z,91.90
2019-02-12T07:58:58.995Z,91.50
2019-02-12T08:02:21.589Z,91.40
2019-02-12T08:05:39.379Z,91.30
2019-02-12T08:08:52.808Z,91.20
2019-02-12T08:11:37.885Z,91.00
2019-02-12T08:14:38.312Z,91.00
2019-02-12T08:17:32.806Z,90.90
2019-02-12T08:20:46.807Z,90.70
2019-02-12T08:23:41.724Z,90.90
2019-02-12T08:26:20.302Z,91.00
2019-02-12T08:29:51.242Z,90.90
2019-02-12T08:32:45.660Z,91.00
2019-02-12T08:35:57.543Z,91.10
2019-02-12T08:38:56.273Z,91.10
2019-02-12T08:42:02.373Z,91.00
2019-02-12T08:44:54.144Z,90.60
2019-02-12T08:47:54.092Z,90.40
2019-02-12T08:50:58.178Z,90.60
2019-02-12T08:54:27.941Z,90.50
2019-02-12T08:57:24.265Z,90.70
2019-02-12T09:00:10.862Z,90.60
2019-02-12T09:03:24.222Z,90.50
2019-02-12T09:06:52.123Z,90.30
2019-02-12T09:09:58.165Z,90.10
2019-02-12T09:13:08.008Z,89.80
2019-02-12T09:16:21.652Z,89.00
2019-02-12T09:19:05.009Z,88.20
2019-02-12T09:22:28.333Z,87.10
2019-02-12T09:25:06.399Z,87.20
2019-02-12T09:28:12.410Z,86.80
2019-02-12T09:31:23.540Z,86.40
2019-02-12T09:34:34.042Z,86.40
2019-02-12T09:37:50.810Z,85.70
2019-02-12T09:41:07.206Z,85.90
2019-02-12T09:44:23.732Z,85.20
2019-02-12T09:47:20.870Z,84.10
2019-02-12T09:50:38.508Z,84.70
2019-02-12T09:53:58.739Z,83.90
2019-02-12T09:57:13.046Z,79.50
2019-02-12T10:00:24.623Z,80.10
2019-02-12T10:03:33.233Z,80.20
2019-02-12T10:06:30.781Z,79.50
2019-02-12T10:09:41.767Z,79.40
2019-02-12T10:12:34.250Z,78.00
2019-02-12T10:15:28.290Z,78.40
2019-02-12T10:18:36.754Z,78.90
2019-02-12T10:21:43.979Z,78.80
2019-02-12T10:24:28.674Z,79.30
2019-02-12T10:27:23.607Z,78.90
2019-02-12T10:30:33.889Z,80.10
2019-02-12T10:33:04.198Z,80.30
2019-02-12T10:35:34.540Z,78.60
2019-02-12T10:38:04.842Z,77.70
2019-02-12T10:40:35.180Z,75.70
2019-02-12T10:43:05.469Z,76.50
2019-02-12T10:45:35.834Z,75.20
2019-02-12T10:48:06.153Z,73.20
2019-02-12T10:50:36.481Z,71.90
2019-02-12T10:53:08.777Z,73.50
2019-02-12T10:55:38.922Z,73.50
2019-02-12T10:58:09.235Z,72.60
2019-02-12T11:00:39.560Z,72.40
2019-02-12T11:03:09.877Z,73.60
2019-02-12T11:05:40.204Z,72.40
2019-02-12T11:08:10.541Z,71.10
2019-02-12T11:10:40.943Z,71.10
2019-02-12T11:13:11.339Z,71.90
2019-02-12T11:15:41.706Z,71.10
2019-02-12T11:18:12.002Z,71.70
2019-02-12T11:20:42.507Z,71.60
2019-02-12T11:23:12.799Z,72.00
2019-02-12T11:25:43.140Z,73.10
2019-02-12T11:28:13.579Z,72.40
2019-02-12T11:30:43.974Z,72.90
2019-02-12T11:33:14.288Z,71.30
2019-02-12T11:35:44.776Z,69.60
2019-02-12T11:38:15.242Z,69.00
2019-02-12T11:40:45.573Z,69.90
2019-02-12T11:43:15.959Z,71.10
2019-02-12T11:45:46.488Z,70.60
2019-02-12T11:48:17.985Z,70.10
2019-02-12T11:50:48.537Z,70.40
2019-02-12T11:53:18.822Z,68.30
2019-02-12T11:55:49.267Z,69.10
2019-02-12T11:58:19.536Z,67.10
2019-02-12T12:00:53.826Z,65.10
2019-02-12T12:03:24.130Z,65.90
2019-02-12T12:05:54.494Z,66.00
2019-02-12T12:08:24.982Z,64.80
2019-02-12T12:10:55.387Z,64.80
2019-02-12T12:13:25.735Z,65.30
2019-02-12T12:15:56.074Z,63.30
2019-02-12T12:18:26.378Z,62.30
2019-02-12T12:20:56.724Z,61.70
2019-02-12T12:23:27.037Z,59.90
2019-02-12T12:25:57.500Z,58.60
2019-02-12T12:28:27.804Z,57.30
2019-02-12T12:30:58.400Z,57.50
2019-02-12T12:33:28.709Z,56.60
2019-02-12T12:35:59.036Z,56.10
2019-02-12T12:38:29.374Z,52.50
2019-02-12T12:40:59.714Z,53.00
2019-02-12T12:43:30.082Z,51.40
2019-02-12T12:46:00.449Z,51.60
2019-02-12T12:48:30.741Z,52.10
2019-02-12T12:51:01.076Z,52.40
2019-02-12T12:53:31.464Z,50.20
2019-02-12T12:56:01.823Z,48.80
2019-02-12T12:58:32.188Z,49.70
2019-02-12T13:01:02.585Z,46.80
2019-02-12T13:03:32.968Z,44.60
2019-02-12T13:06:03.305Z,42.10
2019-02-12T13:08:33.634Z,38.80
2019-02-12T13:11:04.029Z,37.80
2019-02-12T13:13:34.363Z,36.20
2019-02-12T13:16:04.738Z,36.50
2019-02-12T13:18:35.109Z,36.40
2019-02-12T13:21:05.645Z,35.20
2019-02-12T13:23:37.270Z,36.90
2019-02-12T13:26:07.609Z,36.20
2019-02-12T13:28:42.668Z,38.10
2019-02-12T13:31:10.102Z,37.70
2019-02-12T13:33:40.386Z,38.60
2019-02-12T13:36:10.725Z,39.80
2019-02-12T13:38:41.032Z,40.50
2019-02-12T13:41:11.338Z,39.60
2019-02-12T13:43:41.629Z,38.90
2019-02-12T13:46:12.035Z,39.20
2019-02-12T13:48:42.344Z,39.70
2019-02-12T13:51:12.681Z,40.30
2019-02-12T13:53:43.035Z,40.60
2019-02-12T13:56:13.438Z,40.20
2019-02-12T13:58:43.719Z,40.60
2019-02-12T14:01:14.083Z,40.20
2019-02-12T14:03:44.441Z,41.20
2019-02-12T14:06:14.769Z,41.60
2019-02-12T14:08:45.050Z,41.60
2019-02-12T14:11:15.351Z,41.60
2019-02-12T14:13:45.666Z,41.80
2019-02-12T14:16:15.965Z,40.30
2019-02-12T14:18:46.384Z,41.20
2019-02-12T14:21:16.753Z,41.80
2019-02-12T14:23:47.283Z,42.20
2019-02-12T14:26:17.573Z,42.40
2019-02-12T14:28:48.054Z,42.50
2019-02-12T14:31:18.393Z,42.70
2019-02-12T14:33:48.844Z,43.70
2019-02-12T14:36:20.348Z,42.90
2019-02-12T14:38:50.857Z,43.00
2019-02-12T14:41:22.272Z,44.10
2019-02-12T14:43:52.793Z,43.70
2019-02-12T14:46:23.111Z,44.60
2019-02-12T14:48:53.474Z,43.70
2019-02-12T14:51:23.786Z,44.90
2019-02-12T14:53:54.174Z,45.50
2019-02-12T14:56:24.491Z,44.70
2019-02-12T14:58:54.776Z,44.90
2019-02-12T15:01:25.130Z,45.00
2019-02-12T15:03:55.450Z,44.80
2019-02-12T15:06:25.789Z,45.10
2019-02-12T15:08:56.084Z,45.10
2019-02-12T15:11:26.382Z,45.10
2019-02-12T15:13:56.730Z,45.20
2019-02-12T15:16:27.133Z,45.80
2019-02-12T15:18:57.459Z,45.70
2019-02-12T15:21:27.753Z,45.90
2019-02-12T15:23:58.166Z,46.30
2019-02-12T15:26:28.493Z,46.80
2019-02-12T15:28:58.819Z,47.10
2019-02-12T15:31:29.177Z,48.10
2019-02-12T15:33:59.473Z,48.30
2019-02-12T15:36:30.170Z,48.60
2019-02-12T15:39:00.499Z,49.10
2019-02-12T15:41:30.836Z,50.20
2019-02-12T15:44:01.165Z,49.70
2019-02-12T15:46:31.480Z,50.00
2019-02-12T15:49:01.799Z,50.40
2019-02-12T15:51:32.137Z,50.40
2019-02-12T15:54:02.525Z,50.00
2019-02-12T15:56:32.812Z,51.00
2019-02-12T15:59:03.175Z,51.00
2019-02-12T16:01:33.503Z,51.90
2019-02-12T16:04:04.343Z,52.40
2019-02-12T16:06:34.658Z,53.10
2019-02-12T16:09:06.385Z,53.70
2019-02-12T16:11:36.767Z,54.20
2019-02-12T16:14:10.955Z,55.00
2019-02-12T16:16:41.296Z,54.90
2019-02-12T16:19:11.601Z,55.20
2019-02-12T16:21:41.972Z,55.70
2019-02-12T16:24:12.303Z,56.40
2019-02-12T16:26:42.606Z,57.10
2019-02-12T16:29:12.910Z,57.50
2019-02-12T16:31:43.222Z,57.90
2019-02-12T16:34:13.586Z,58.30
2019-02-12T16:36:43.878Z,58.50
2019-02-12T16:39:14.364Z,58.90
2019-02-12T16:41:44.663Z,59.60
2019-02-12T16:44:14.982Z,59.70
2019-02-12T16:46:45.398Z,59.70
2019-02-12T16:49:16.602Z,59.90
2019-02-12T16:51:46.901Z,60.40
2019-02-12T16:54:17.334Z,60.70
2019-02-12T16:56:47.613Z,61.30
2019-02-12T16:59:17.947Z,61.80
2019-02-12T17:01:48.275Z,62.10
2019-02-12T17:04:20.047Z,63.10
2019-02-12T17:06:50.920Z,63.00
2019-02-12T17:09:21.296Z,63.30
2019-02-12T17:11:51.876Z,63.40
2019-02-12T17:14:26.083Z,63.70
2019-02-12T17:16:56.525Z,64.00
2019-02-12T17:19:27.183Z,64.20
2019-02-12T17:21:57.776Z,64.50
2019-02-12T17:24:28.165Z,64.90
2019-02-12T17:26:58.638Z,65.50
2019-02-12T17:29:29.017Z,65.70
2019-02-12T17:31:59.318Z,66.30
2019-02-12T17:34:29.725Z,66.10
2019-02-12T17:37:00.144Z,65.80
2019-02-12T17:39:31.342Z,66.30
2019-02-12T17:42:01.983Z,66.10
2019-02-12T17:44:32.664Z,66.30
2019-02-12T17:47:02.962Z,66.60
2019-02-12T17:49:33.285Z,66.90
2019-02-12T17:52:04.748Z,67.00
2019-02-12T17:54:35.260Z,67.50
2019-02-12T17:57:05.578Z,67.80
2019-02-12T17:59:36.039Z,68.60
2019-02-12T18:02:06.343Z,68.90
2019-02-12T18:04:36.656Z,68.40
2019-02-12T18:07:06.952Z,68.40
2019-02-12T18:09:37.313Z,68.50
2019-02-12T18:12:07.691Z,68.80
2019-02-12T18:14:38.037Z,69.50
2019-02-12T18:17:08.421Z,69.60
2019-02-12T18:19:38.768Z,69.60
2019-02-12T18:22:09.942Z,69.50
2019-02-12T18:24:40.315Z,70.70
2019-02-12T18:27:10.621Z,71.70
2019-02-12T18:29:40.986Z,71.20
2019-02-12T18:32:11.323Z,71.00
2019-02-12T18:34:41.675Z,71.70
2019-02-12T18:37:12.271Z,71.80
2019-02-12T18:39:43.161Z,72.10
2019-02-12T18:42:13.476Z,72.40
2019-02-12T18:44:43.850Z,72.00
2019-02-12T18:47:14.175Z,71.40
2019-02-12T18:49:45.287Z,71.20
2019-02-12T18:52:15.598Z,70.90
2019-02-12T18:54:45.942Z,71.10
2019-02-12T18:57:16.236Z,71.10
2019-02-12T18:59:47.077Z,71.90
2019-02-12T19:02:17.407Z,71.70
2019-02-12T19:04:47.762Z,71.90
2019-02-12T19:07:18.254Z,71.90
2019-02-12T19:09:48.656Z,72.10
2019-02-12T19:12:18.966Z,72.10
2019-02-12T19:14:49.293Z,72.50
2019-02-12T19:17:19.597Z,72.60
2019-02-12T19:19:49.927Z,73.30
2019-02-12T19:22:20.291Z,74.20
2019-02-12T19:24:50.648Z,74.10
2019-02-12T19:27:20.960Z,74.80
2019-02-12T19:29:51.297Z,74.30
2019-02-12T19:32:21.598Z,74.30
2019-02-12T19:34:52.512Z,75.00
2019-02-12T19:37:23.930Z,75.70
2019-02-12T19:39:54.428Z,75.50
2019-02-12T19:42:24.734Z,76.60
2019-02-12T19:44:55.082Z,77.70
2019-02-12T19:47:25.390Z,78.70
2019-02-12T19:49:56.787Z,78.30
2019-02-12T19:52:28.123Z,78.10
2019-02-12T19:54:58.446Z,77.50
2019-02-12T19:57:28.759Z,77.40
2019-02-12T19:59:59.154Z,77.10
2019-02-12T20:02:29.708Z,77.90
2019-02-12T20:05:00.183Z,77.20
2019-02-12T20:07:30.809Z,77.10
2019-02-12T20:10:01.231Z,77.20
2019-02-12T20:12:32.660Z,77.10
2019-02-12T20:15:03.818Z,77.10
2019-02-12T20:17:34.566Z,77.60
2019-02-12T20:20:05.897Z,77.50
2019-02-12T20:22:36.328Z,77.60
2019-02-12T20:25:06.873Z,77.90
2019-02-12T20:27:37.229Z,78.00
2019-02-12T20:30:09.083Z,78.10
2019-02-12T20:32:40.339Z,78.10
2019-02-12T20:35:11.880Z,79.00
2019-02-12T20:37:43.374Z,78.70
2019-02-12T20:40:13.861Z,78.50
2019-02-12T20:42:45.103Z,78.70
2019-02-12T20:45:16.401Z,78.60
2019-02-12T20:47:46.878Z,78.90
2019-02-12T20:50:17.351Z,79.30
2019-02-12T20:52:47.847Z,79.50
2019-02-12T20:55:18.398Z,79.10
2019-02-12T20:57:48.810Z,79.30
2019-02-12T21:00:19.447Z,79.40
2019-02-12T21:02:50.430Z,79.80
2019-02-12T21:05:20.945Z,80.60
2019-02-12T21:07:51.390Z,80.80
2019-02-12T21:10:21.787Z,80.50
2019-02-12T21:12:52.266Z,80.70
2019-02-12T21:15:22.821Z,80.50
2019-02-12T21:17:53.143Z,80.80
2019-02-12T21:20:23.454Z,81.10
2019-02-12T21:22:53.839Z,81.60
2019-02-12T21:25:24.225Z,81.40
2019-02-12T21:27:54.588Z,81.90
2019-02-12T21:30:25.309Z,81.50
2019-02-12T21:32:55.686Z,81.80
2019-02-12T21:35:25.979Z,82.30
2019-02-12T21:37:56.570Z,82.40
2019-02-12T21:40:26.927Z,82.40
2019-02-12T21:42:57.312Z,82.70
2019-02-12T21:45:41.372Z,83.50
2019-02-12T21:48:12.775Z,83.70
2019-02-12T21:50:43.118Z,83.40
2019-02-12T21:53:13.602Z,83.20
2019-02-12T21:55:44.052Z,83.00
2019-02-12T21:58:14.421Z,83.00
2019-02-12T22:00:44.779Z,83.40
2019-02-12T22:03:15.175Z,83.10
2019-02-12T22:05:45.589Z,83.10
2019-02-12T22:08:15.940Z,83.50
2019-02-12T22:10:46.719Z,83.70
2019-02-12T22:13:17.453Z,84.30
2019-02-12T22:15:47.778Z,84.90
2019-02-12T22:18:18.259Z,84.00
2019-02-12T22:20:48.576Z,84.20
2019-02-12T22:23:19.258Z,84.80
2019-02-12T22:25:49.769Z,84.30
2019-02-12T22:28:21.068Z,84.30
2019-02-12T22:30:51.399Z,84.30
2019-02-12T22:33:21.725Z,84.20
2019-02-12T22:35:52.249Z,84.30
2019-02-12T22:38:22.834Z,84.60
2019-02-12T22:40:53.166Z,85.20
2019-02-12T22:43:24.343Z,85.10
2019-02-12T22:45:54.683Z,84.90
2019-02-12T22:48:25.147Z,85.10
2019-02-12T22:50:55.450Z,86.20
2019-02-12T22:53:25.878Z,85.10
2019-02-12T22:55:56.614Z,84.40
2019-02-12T22:58:27.075Z,85.30
2019-02-12T23:01:05.800Z,85.90
2019-02-12T23:03:37.205Z,87.70
2019-02-12T23:06:07.606Z,86.90
2019-02-12T23:08:38.010Z,86.50
2019-02-12T23:11:08.407Z,86.20
2019-02-12T23:13:38.853Z,86.00
2019-02-12T23:16:09.376Z,85.90
2019-02-12T23:18:40.018Z,85.90
2019-02-12T23:21:10.366Z,86.00
2019-02-12T23:23:40.785Z,87.50
2019-02-12T23:26:11.163Z,87.60
2019-02-12T23:28:41.696Z,87.80
2019-02-12T23:31:12.431Z,87.20
2019-02-12T23:33:43.875Z,87.10
2019-02-12T23:36:14.267Z,87.40
2019-02-12T23:38:44.738Z,86.90
2019-02-12T23:41:15.173Z,87.20
2019-02-12T23:43:45.593Z,87.30
2019-02-12T23:46:15.918Z,87.10
2019-02-12T23:48:46.250Z,87.00
2019-02-12T23:51:17.486Z,86.80
2019-02-12T23:53:48.002Z,86.90
2019-02-12T23:56:18.541Z,87.30
2019-02-12T23:58:49.204Z,87.30
